Station KGXA2 - Kodiak Gull Island, AK Image indicating link to RSS feed of recent meteorological observations for station KGXA2


Conditions at KGXA2 as of
(9:34 am AKDT)
1734 GMT on 04/20/2024:
     

Click on the graph icon in the table below to see a time series plot of the last five days of that observation.

5-day plot - Wind Direction Wind Direction (WDIR): E ( 80 deg true )
5-day plot - Wind Speed Wind Speed (WSPD): 6 kts
5-day plot - Wind Gust Wind Gust (GST): 9 kts
5-day plot - Air Temperature Air Temperature (ATMP): 39.2 °F
5-day plot - Dew Point Dew Point (DEWP): 36.3 °F
5-day plot - Wind Chill Wind Chill (CHILL): 34.2 °F
5-day plot - Wind Speed at 10 Meters Wind Speed at 10 meters (WSPD10M): 6 kts
5-day plot - Wind Speed at 20 Meters Wind Speed at 20 meters (WSPD20M): 6 kts
5-day plot -  Wind Speed, Wind Gust and Atmospheric Pressure Combined plot of Wind Speed, Gust, and Air Pressure
Previous observations
TIME
(AKDT)
5-day plot - Wind Direction
WDIR
 
5-day plot - Wind Speed
WSPD
kts
5-day plot - Wind Gust
GST
kts
5-day plot - Wave Height
WVHT
ft
5-day plot - Dominant Wave Period
DPD
sec
5-day plot - Average Wave Period
APD
sec
5-day plot - Mean Wave Direction
MWD
 
5-day plot - Atmospheric Pressure
PRES
in
5-day plot - Pressure Tendency
PTDY
in
5-day plot - Air Temperature
ATMP
°F
5-day plot - Water Temperature
WTMP
°F
5-day plot - Dew Point
DEWP
°F
5-day plot - Salinity
SAL
psu
5-day plot - Visibility
VIS
nmi
5-day plot - Tide (above MLLW)
TIDE
ft
2024-04-20 09:14 am E 5 9------ 39.0- 36.1---
2024-04-20 09:04 am E 4 10------ 38.8- 36.0---
2024-04-20 08:54 am E 5 8------ 38.5- 35.8---
2024-04-20 08:44 amESE 6 11------ 38.7- 36.0---
2024-04-20 08:34 am E 6 11------ 39.0- 36.3---
2024-04-20 08:24 amESE 5 9------ 39.0- 36.3---
2024-04-20 08:14 amESE 6 11------ 38.8- 36.1---
2024-04-20 08:09 amESE 6 14------ 39.0- 36.3---
2024-04-20 08:04 amESE 6 14------ 39.0- 36.3---
2024-04-20 07:44 amESE 4 7------ 39.0- 36.3---
2024-04-20 07:34 am E 7 11------ 38.8- 36.1---
2024-04-20 07:24 amENE 5 8------ 39.0- 36.3---
2024-04-20 07:14 am E 7 10------ 39.0- 36.5---
2024-04-20 07:04 am E 7 12------ 39.0- 36.7---
2024-04-20 06:54 am E 7 11------ 39.0- 36.7---
2024-04-20 06:44 am E 7 11------ 39.2- 36.9---
2024-04-20 06:34 am E 7 14------ 39.4- 37.0---
2024-04-20 06:24 am E 8 14------ 39.4- 37.0---
2024-04-20 06:14 am E 8 15------ 39.4- 37.2---
2024-04-20 06:04 am E 9 14------ 39.6- 37.4---
2024-04-20 05:54 am E 8 15------ 39.6- 37.4---
2024-04-20 05:44 am E 9 15------ 39.7- 37.6---
2024-04-20 05:34 amESE 8 15------ 39.7- 37.6---
2024-04-20 05:24 amESE 8 15------ 39.7- 37.6---
2024-04-20 05:14 am E 9 14------ 39.7- 37.6---
2024-04-20 05:04 am E 8 13------ 39.7- 37.6---
2024-04-20 04:54 am E 8 14------ 39.7- 37.6---
2024-04-20 04:44 am E 9 15------ 39.7- 37.6---
2024-04-20 04:34 am E 10 16------ 39.9- 37.8---
2024-04-20 04:24 am E 9 17------ 39.9- 37.8---
2024-04-20 04:14 am E 9 15------ 39.9- 37.8---
2024-04-20 04:04 am E 8 14------ 39.9- 37.8---
2024-04-20 03:54 am E 9 15------ 39.9- 37.8---
2024-04-20 03:44 am E 9 14------ 40.1- 37.9---
2024-04-20 03:34 am E 8 14------ 40.1- 37.9---
2024-04-20 03:24 am E 7 11------ 40.3- 38.1---
2024-04-20 03:14 am E 7 12------ 40.3- 38.1---
2024-04-20 03:04 am E 7 10------ 40.3- 38.1---
2024-04-20 02:54 amENE 8 11------ 40.3- 37.9---
2024-04-20 02:44 amENE 8 11------ 40.5- 37.8---
2024-04-20 02:34 am NE 7 11------ 40.5- 37.8---
2024-04-20 02:24 am NE 7 10------ 40.3- 37.6---
2024-04-20 02:14 am NE 5 8------ 40.3- 37.6---
2024-04-20 02:04 am NE 6 8------ 40.3- 37.6---
2024-04-20 01:44 amENE 5 8------ 40.3- 37.9---
2024-04-20 01:34 am E 4 6------ 40.3- 37.9---
2024-04-20 01:24 amESE 3 6------ 40.3- 38.1---
2024-04-20 01:14 am E 3 5------ 40.3- 38.1---
2024-04-20 01:04 amESE 3 5------ 40.3- 38.1---
2024-04-20 12:54 amESE 2 4------ 40.3- 38.1---
2024-04-20 12:44 am E 2 4------ 40.3- 38.1---
2024-04-20 12:34 am E 3 5------ 40.1- 37.9---
2024-04-20 12:24 am E 3 6------ 40.1- 37.9---
2024-04-20 12:15 amESE 3 5------ 40.1- 37.9---
2024-04-20 12:04 am E 4 6------ 40.1- 37.9---
2024-04-19 11:54 pm E 3 6------ 40.3- 38.1---
2024-04-19 11:44 pmESE 4 6------ 40.3- 38.1---
2024-04-19 11:34 pmSSE 3 6------ 40.1- 37.9---
2024-04-19 11:24 pm S 4 6------ 40.1- 37.9---
2024-04-19 11:14 pm S 4 8------ 40.3- 38.1---
2024-04-19 11:04 pm S 4 7------ 40.5- 38.3---
2024-04-19 10:54 pmSSE 5 7------ 40.6- 38.5---
2024-04-19 10:44 pm S 4 6------ 40.8- 38.7---
2024-04-19 10:34 pmSSE 4 7------ 41.0- 38.8---
2024-04-19 10:24 pmESE 3 5------ 41.2- 39.0---
2024-04-19 10:14 pmESE 3 5------ 41.2- 39.0---
2024-04-19 10:04 pm E 3 6------ 41.2- 39.0---
2024-04-19 09:54 pmESE 3 6------ 41.2- 39.0---
2024-04-19 09:44 pmESE 4 7------ 41.2- 39.0---
2024-04-19 09:34 pmESE 4 8------ 41.2- 39.0---
2024-04-19 09:24 pmESE 4 8------ 41.0- 38.8---
2024-04-19 09:14 pm E 5 9------ 41.0- 38.8---
2024-04-19 09:04 pmESE 5 9------ 41.0- 38.8---
2024-04-19 08:54 pmESE 5 11------ 41.0- 38.8---
2024-04-19 08:44 pmESE 5 9------ 41.0- 38.8---
2024-04-19 08:35 pmESE 5 9------ 41.0- 38.7---
2024-04-19 08:24 pm E 6 11------ 41.0- 38.7---
2024-04-19 08:14 pmESE 6 13------ 41.2- 38.8---
2024-04-19 08:04 pmESE 5 10------ 41.2- 38.8---
2024-04-19 07:54 pmESE 6 11------ 41.2- 38.8---
2024-04-19 07:44 pmESE 5 10------ 41.2- 38.8---
2024-04-19 07:34 pmESE 6 12------ 41.2- 38.8---
2024-04-19 07:24 pmESE 7 15------ 41.2- 38.8---
2024-04-19 07:14 pmESE 7 14------ 41.2- 38.8---
2024-04-19 07:04 pmESE 7 14------ 41.0- 38.7---
2024-04-19 06:54 pmESE 7 16------ 41.0- 38.7---
2024-04-19 06:44 pmESE 8 16------ 41.0- 38.7---
2024-04-19 06:34 pmESE 9 18------ 41.0- 38.7---
2024-04-19 06:24 pmESE 9 15------ 40.8- 38.5---
2024-04-19 06:14 pmESE 9 16------ 40.8- 38.5---
2024-04-19 06:04 pmESE 9 16------ 40.8- 38.5---
2024-04-19 05:54 pmESE 9 16------ 40.6- 38.1---
2024-04-19 05:44 pmESE 10 19------ 40.6- 37.9---
2024-04-19 05:34 pmESE 11 19------ 40.6- 37.9---
2024-04-19 05:24 pmESE 11 18------ 40.6- 37.9---
2024-04-19 05:14 pmESE 10 18------ 40.6- 38.3---
2024-04-19 05:04 pmESE 10 19------ 40.6- 38.3---
2024-04-19 04:54 pmESE 11 21------ 40.6- 38.3---
2024-04-19 04:44 pmESE 10 16------ 40.6- 38.3---
2024-04-19 04:34 pmESE 10 17------ 40.6- 38.1---
2024-04-19 04:24 pmESE 11 21------ 40.6- 37.9---
2024-04-19 04:14 pmESE 12 27------ 40.6- 37.9---
2024-04-19 03:54 pmESE 11 23------ 40.6- 37.9---
2024-04-19 03:44 pmESE 12 20------ 40.6- 37.9---
2024-04-19 03:34 pmESE 12 20------ 40.6- 37.9---
2024-04-19 03:24 pmESE 13 25------ 40.5- 37.8---
2024-04-19 03:14 pmESE 13 21------ 40.5- 37.8---
2024-04-19 03:04 pmESE 12 23------ 40.3- 37.6---
2024-04-19 02:54 pm E 13 21------ 40.1- 37.4---
2024-04-19 02:44 pm E 13 21------ 40.1- 37.4---
2024-04-19 02:34 pm E 13 26------ 39.9- 37.2---
2024-04-19 02:14 pm E 14 21------ 39.9- 36.9---
2024-04-19 02:04 pm E 13 20------ 39.9- 36.9---
2024-04-19 01:54 pm E 14 21------ 39.7- 36.7---
2024-04-19 01:44 pmESE 14 24------ 39.7- 36.5---
2024-04-19 01:34 pmESE 13 25------ 39.7- 36.7---
2024-04-19 01:24 pmESE 13 23------ 39.9- 36.9---
2024-04-19 01:14 pmESE 12 28------ 39.7- 36.7---
2024-04-19 01:04 pmESE 13 27------ 39.7- 36.7---
2024-04-19 12:54 pmESE 12 24------ 39.9- 36.9---
2024-04-19 12:44 pmESE 14 25------ 39.9- 36.9---
2024-04-19 12:34 pmESE 13 23------ 40.1- 37.0---
2024-04-19 12:24 pmESE 12 22------ 40.1- 37.0---
2024-04-19 12:14 pmESE 13 25------ 39.9- 36.9---
2024-04-19 12:04 pmESE 14 28------ 39.9- 36.9---
2024-04-19 11:54 amESE 13 30------ 39.9- 36.9---
2024-04-19 11:44 amESE 12 20------ 40.1- 37.4---
2024-04-19 11:34 amESE 12 26------ 40.3- 37.6---
2024-04-19 11:24 amESE 11 20------ 40.3- 37.6---
2024-04-19 11:14 amESE 12 20------ 40.3- 37.6---
2024-04-19 11:04 amESE 12 22------ 40.5- 37.4---
2024-04-19 10:54 amESE 13 24------ 40.5- 37.6---
2024-04-19 10:44 amESE 10 18------ 40.6- 37.9---
2024-04-19 10:34 amESE 12 24------ 40.6- 38.3---
2024-04-19 10:24 amESE 12 20------ 40.8- 38.5---
2024-04-19 10:14 amESE 13 21------ 41.0- 38.7---
2024-04-19 10:04 amESE 12 24------ 41.0- 38.7---
2024-04-19 09:54 amESE 12 22------ 41.0- 38.7---
2024-04-19 09:44 amESE 11 19------ 41.0- 38.7---
2024-04-19 09:34 am E 13 24------ 41.0- 38.7---
2024-04-19 09:14 amESE 10 17------ 41.0- 38.7---
2024-04-19 09:04 amESE 9 16------ 41.0- 38.3---
2024-04-19 08:54 am E 11 19------ 41.0- 38.3---